Time;durP1;ratioP1;P1;durP2;ratioP2;P2;SDS_P1;SDS_P2;PMS_P1;PMS_P2;Temp;Humidity;BMP_temperature;BMP_pressure;BME280_temperature;BME280_humidity;BME280_pressure;Samples;Min_cycle;Max_cycle;Signal;HPM_P1;HPM_P2
2021/01/18 00:00:49;;;;;;;16.17;9.27;;;;;;;-1.40;82.72;100779.25;5064486;28;20056;-72
2021/01/18 00:03:15;;;;;;;15.88;8.95;;;;;;;-1.35;82.76;100770.94;5065765;28;20017;-72
2021/01/18 00:05:40;;;;;;;18.65;8.80;;;;;;;-1.37;82.43;100766.66;5065672;28;20021;-72
2021/01/18 00:08:06;;;;;;;20.33;9.60;;;;;;;-1.30;82.40;100770.38;5065558;28;20086;-71
2021/01/18 00:10:31;;;;;;;19.42;9.75;;;;;;;-1.34;82.20;100762.50;5065656;28;20032;-71
2021/01/18 00:12:57;;;;;;;14.10;8.32;;;;;;;-1.34;82.42;100762.50;5065578;28;20036;-72
2021/01/18 00:15:24;;;;;;;18.70;9.20;;;;;;;-1.36;82.54;100754.81;5065417;28;20033;-72
2021/01/18 00:17:51;;;;;;;15.98;8.82;;;;;;;-1.39;82.52;100747.88;5065561;28;20064;-72
2021/01/18 00:20:18;;;;;;;17.00;9.65;;;;;;;-1.32;82.64;100755.78;5065354;28;20029;-72
2021/01/18 00:22:45;;;;;;;18.65;10.38;;;;;;;-1.27;82.79;100750.13;5065494;28;20041;-71
2021/01/18 00:25:14;;;;;;;20.70;9.35;;;;;;;-1.21;82.75;100746.97;5064809;28;20029;-71
2021/01/18 00:27:40;;;;;;;16.70;8.45;;;;;;;-1.19;82.60;100747.03;5065421;28;20048;-71
2021/01/18 00:30:07;;;;;;;16.75;8.43;;;;;;;-1.17;82.63;100745.44;5065111;28;20433;-72
2021/01/18 00:32:32;;;;;;;18.33;7.65;;;;;;;-1.25;82.47;100730.66;5064952;28;20025;-72
2021/01/18 00:34:57;;;;;;;13.38;8.27;;;;;;;-1.23;82.27;100728.19;5063719;28;20031;-71
2021/01/18 00:37:23;;;;;;;17.45;8.50;;;;;;;-1.21;82.23;100730.78;5064576;28;20031;-71
2021/01/18 00:39:48;;;;;;;18.65;8.90;;;;;;;-1.28;82.55;100714.38;5064995;28;20063;-72
2021/01/18 00:42:18;;;;;;;14.35;7.28;;;;;;;-1.21;82.30;100731.69;5064765;28;20021;-71
2021/01/18 00:44:44;;;;;;;17.35;9.48;;;;;;;-1.26;82.13;100711.09;5064839;28;20047;-71
2021/01/18 00:47:09;;;;;;;16.23;8.23;;;;;;;-1.34;82.57;100711.56;5064957;28;20115;-72
2021/01/18 00:49:34;;;;;;;16.02;8.23;;;;;;;-1.25;82.58;100735.75;5064906;28;20024;-72
2021/01/18 00:52:00;;;;;;;16.45;8.45;;;;;;;-1.20;82.61;100724.91;5064822;28;20020;-71
2021/01/18 00:54:25;;;;;;;20.40;8.43;;;;;;;-1.16;82.55;100716.59;5064787;28;20087;-72
2021/01/18 00:56:51;;;;;;;14.32;8.02;;;;;;;-1.17;82.25;100713.19;5064242;28;20048;-72
2021/01/18 00:59:16;;;;;;;16.15;8.82;;;;;;;-1.19;82.28;100714.78;5064701;28;20047;-72
2021/01/18 01:01:42;;;;;;;14.93;9.00;;;;;;;-1.20;81.93;100707.97;5064539;28;20074;-74
2021/01/18 01:04:07;;;;;;;16.30;8.77;;;;;;;-1.26;82.26;100693.25;5063097;28;20401;-73
2021/01/18 01:06:33;;;;;;;17.05;7.55;;;;;;;-1.18;82.35;100710.59;5064477;28;20445;-72
2021/01/18 01:08:59;;;;;;;18.55;10.23;;;;;;;-1.20;82.56;100707.97;5064228;28;20024;-73
2021/01/18 01:11:24;;;;;;;16.90;9.18;;;;;;;-1.17;82.50;100705.56;5064224;28;20052;-72
2021/01/18 01:13:50;;;;;;;16.92;8.82;;;;;;;-1.15;82.24;100708.16;5064347;28;20043;-72
2021/01/18 01:16:15;;;;;;;16.25;8.73;;;;;;;-1.18;81.85;100698.69;5064147;28;20036;-72
2021/01/18 01:18:43;;;;;;;17.13;8.10;;;;;;;-1.19;82.07;100703.72;5064158;28;20162;-73
2021/01/18 01:21:09;;;;;;;16.35;8.20;;;;;;;-1.25;82.27;100702.63;5064257;28;20025;-72
2021/01/18 01:23:35;;;;;;;15.73;9.43;;;;;;;-1.26;81.99;100697.47;5064262;28;20035;-72
2021/01/18 01:26:00;;;;;;;17.48;8.52;;;;;;;-1.27;82.17;100699.16;5063880;28;20044;-73
2021/01/18 01:28:25;;;;;;;19.30;8.25;;;;;;;-1.30;82.17;100693.94;5064214;28;20162;-73
2021/01/18 01:30:51;;;;;;;16.60;8.40;;;;;;;-1.23;82.52;100699.31;5079289;28;20017;-73
2021/01/18 01:33:16;;;;;;;17.75;7.75;;;;;;;-1.19;82.23;100696.06;5063920;28;20406;-72
2021/01/18 01:35:41;;;;;;;16.77;8.25;;;;;;;-1.20;82.21;100692.69;5063862;28;20023;-72
2021/01/18 01:38:07;;;;;;;16.10;8.48;;;;;;;-1.16;82.18;100686.91;5063822;28;20063;-73
2021/01/18 01:40:32;;;;;;;18.17;8.77;;;;;;;-1.21;82.21;100687.47;5045715;28;20044;-72
2021/01/18 01:43:00;;;;;;;22.92;10.18;;;;;;;-1.21;82.13;100688.38;5063851;28;20040;-73
2021/01/18 01:45:25;;;;;;;15.15;8.82;;;;;;;-1.19;82.29;100688.44;5063543;28;20029;-74
2021/01/18 01:47:53;;;;;;;17.17;8.50;;;;;;;-1.20;82.08;100687.59;5063126;28;20027;-73
2021/01/18 01:50:27;;;;;;;16.67;8.77;;;;;;;-1.23;82.04;100684.88;5063827;28;20044;-71
2021/01/18 01:53:21;;;;;;;16.23;8.82;;;;;;;-1.20;82.08;100679.06;5064114;28;20024;-71
2021/01/18 01:55:47;;;;;;;15.88;8.27;;;;;;;-1.20;82.08;100673.97;5059434;28;20029;-71
2021/01/18 01:58:15;;;;;;;19.90;9.00;;;;;;;-1.26;82.39;100667.78;5063963;28;20047;-71
2021/01/18 02:00:41;;;;;;;16.08;8.18;;;;;;;-1.17;82.46;100674.09;5064267;28;20047;-71
2021/01/18 02:03:11;;;;;;;19.10;9.23;;;;;;;-1.14;82.36;100671.69;5064097;28;20159;-72
2021/01/18 02:05:38;;;;;;;20.17;9.60;;;;;;;-1.13;82.27;100670.88;5064209;28;20017;-72
2021/01/18 02:08:06;;;;;;;13.65;8.70;;;;;;;-1.15;82.73;100669.94;5064663;28;20021;-72
2021/01/18 02:10:33;;;;;;;15.77;7.90;;;;;;;-1.09;82.84;100656.59;5064496;28;20025;-72
2021/01/18 02:13:00;;;;;;;16.67;8.85;;;;;;;-1.04;82.60;100655.97;5064229;28;20029;-71
2021/01/18 02:15:38;;;;;;;16.10;7.05;;;;;;;-0.99;82.25;100656.16;5063885;28;20104;-71
2021/01/18 02:18:24;;;;;;;16.33;8.27;;;;;;;-1.06;81.93;100657.59;5063841;28;20021;-72
2021/01/18 02:21:30;;;;;;;19.60;10.52;;;;;;;-1.15;82.34;100652.13;5063798;28;20021;-73
2021/01/18 02:24:27;;;;;;;21.95;8.82;;;;;;;-1.12;82.71;100649.69;5063814;28;20037;-72
2021/01/18 02:27:08;;;;;;;15.80;8.85;;;;;;;-1.14;82.73;100654.72;5054804;28;20037;-73
2021/01/18 02:30:07;;;;;;;23.30;10.57;;;;;;;-1.15;82.80;100644.47;5063656;28;20020;-72
2021/01/18 02:33:21;;;;;;;21.27;9.32;;;;;;;-1.12;83.07;100637.81;5063574;28;20021;-73
2021/01/18 02:36:28;;;;;;;21.55;8.88;;;;;;;-1.09;82.83;100639.63;5063409;28;20032;-71
2021/01/18 02:39:13;;;;;;;18.23;9.60;;;;;;;-1.09;82.91;100637.09;5063323;28;20055;-72
2021/01/18 02:41:42;;;;;;;17.17;9.35;;;;;;;-1.09;82.83;100642.19;5063386;28;20100;-72
2021/01/18 02:44:15;;;;;;;23.08;9.65;;;;;;;-1.14;83.07;100636.00;5063593;28;20028;-71
2021/01/18 02:46:42;;;;;;;17.60;9.13;;;;;;;-1.19;83.07;100629.84;5063376;28;20032;-72
2021/01/18 02:49:09;;;;;;;23.63;10.00;;;;;;;-1.20;83.21;100635.75;5063113;28;20021;-73
2021/01/18 02:51:42;;;;;;;23.77;10.68;;;;;;;-1.25;83.09;100625.34;5063374;28;20432;-72
2021/01/18 02:54:07;;;;;;;19.40;10.88;;;;;;;-1.21;83.27;100622.13;5063486;28;20541;-72
2021/01/18 02:56:34;;;;;;;17.25;9.25;;;;;;;-1.22;83.24;100624.59;5063106;28;20052;-72
2021/01/18 02:59:00;;;;;;;16.25;9.35;;;;;;;-1.21;83.12;100626.34;5062802;28;20020;-71
2021/01/18 03:01:38;;;;;;;20.00;11.23;;;;;;;-1.22;83.20;100634.78;5067470;28;20051;-72
2021/01/18 03:04:09;;;;;;;24.38;10.75;;;;;;;-1.30;83.20;100620.06;5067560;28;20028;-73
2021/01/18 03:06:37;;;;;;;22.10;9.60;;;;;;;-1.25;83.24;100627.91;5067044;28;20025;-72
2021/01/18 03:09:08;;;;;;;10.52;5.75;;;;;;;-1.24;83.33;100629.63;5067393;28;20040;-71
2021/01/18 03:11:40;;;;;;;16.98;9.15;;;;;;;-1.29;83.30;100618.38;5067437;28;20025;-72
2021/01/18 03:14:23;;;;;;;16.60;9.18;;;;;;;-1.26;83.33;100621.94;5067154;28;20071;-72
2021/01/18 03:16:49;;;;;;;17.92;9.70;;;;;;;-1.30;83.67;100624.28;5066968;28;20029;-72
2021/01/18 03:19:17;;;;;;;23.00;12.07;;;;;;;-1.30;83.63;100612.41;5066995;28;20028;-72
2021/01/18 03:21:47;;;;;;;21.58;11.43;;;;;;;-1.23;83.72;100610.97;5066934;28;20462;-71
2021/01/18 03:24:21;;;;;;;16.40;8.40;;;;;;;-1.18;83.75;100617.16;5067013;28;20025;-71
2021/01/18 03:26:46;;;;;;;23.95;11.32;;;;;;;-1.17;83.59;100612.94;5067236;28;20032;-72
2021/01/18 03:29:12;;;;;;;22.40;9.73;;;;;;;-1.14;83.65;100615.63;5067188;28;20017;-72
2021/01/18 03:31:37;;;;;;;18.40;8.77;;;;;;;-1.09;83.50;100614.16;5082338;28;20477;-73
2021/01/18 03:34:02;;;;;;;17.73;9.88;;;;;;;-1.10;83.34;100604.75;5066816;28;20116;-71
2021/01/18 03:36:31;;;;;;;19.13;9.32;;;;;;;-1.13;83.48;100609.72;5066458;28;20025;-72
2021/01/18 03:38:56;;;;;;;21.30;9.95;;;;;;;-1.17;83.39;100607.84;5066144;28;20028;-71
2021/01/18 03:41:21;;;;;;;22.00;10.75;;;;;;;-1.19;83.60;100602.69;5066363;28;20028;-71
2021/01/18 03:43:47;;;;;;;15.25;6.88;;;;;;;-1.14;83.28;100608.84;5066580;28;20048;-71
2021/01/18 03:46:12;;;;;;;19.90;9.27;;;;;;;-1.25;83.32;100593.09;5066667;28;20028;-71
2021/01/18 03:48:37;;;;;;;18.70;10.23;;;;;;;-1.23;83.32;100608.44;5066440;28;20041;-71
2021/01/18 03:51:03;;;;;;;20.15;10.43;;;;;;;-1.29;83.54;100603.97;5081821;28;20028;-71
2021/01/18 03:53:28;;;;;;;30.85;12.57;;;;;;;-1.34;83.69;100595.25;5066381;28;20079;-71
2021/01/18 03:55:54;;;;;;;21.50;9.77;;;;;;;-1.35;83.83;100590.09;5081294;28;20048;-71
2021/01/18 03:58:19;;;;;;;23.40;10.70;;;;;;;-1.28;83.74;100600.59;5081521;28;20489;-70
2021/01/18 04:00:44;;;;;;;21.02;10.88;;;;;;;-1.28;83.58;100592.94;5066350;28;20085;-70
2021/01/18 04:03:10;;;;;;;27.92;13.00;;;;;;;-1.35;83.69;100588.41;5066152;28;20021;-71
2021/01/18 04:05:35;;;;;;;21.30;9.73;;;;;;;-1.36;83.85;100596.88;5066152;28;20029;-71
2021/01/18 04:08:01;;;;;;;25.60;12.57;;;;;;;-1.38;83.98;100585.75;5066047;28;20032;-71
2021/01/18 04:10:29;;;;;;;28.02;12.43;;;;;;;-1.42;84.10;100581.31;5065160;28;20025;-71
2021/01/18 04:12:56;;;;;;;18.92;9.60;;;;;;;-1.43;84.25;100580.44;5081280;28;20032;-70
2021/01/18 04:15:24;;;;;;;27.13;10.90;;;;;;;-1.37;84.17;100585.81;5065653;28;20023;-70
2021/01/18 04:17:52;;;;;;;26.75;13.00;;;;;;;-1.38;84.06;100578.97;5065929;28;20048;-71
2021/01/18 04:20:18;;;;;;;28.92;12.60;;;;;;;-1.37;84.02;100582.38;5065857;28;20040;-72
2021/01/18 04:22:51;;;;;;;31.73;14.27;;;;;;;-1.41;84.19;100570.31;5065887;28;20013;-71
2021/01/18 04:25:19;;;;;;;19.05;9.30;;;;;;;-1.32;83.94;100564.75;5065578;28;20029;-71
2021/01/18 04:27:46;;;;;;;23.73;11.57;;;;;;;-1.42;84.22;100566.91;5065671;28;20028;-72
2021/01/18 04:30:12;;;;;;;30.45;12.80;;;;;;;-1.46;84.27;100559.94;5065758;28;20029;-73
2021/01/18 04:32:38;;;;;;;21.70;10.18;;;;;;;-1.40;84.22;100564.41;5065627;28;20025;-73
2021/01/18 04:35:03;;;;;;;23.50;11.23;;;;;;;-1.36;84.03;100558.66;5065511;28;20068;-73
2021/01/18 04:37:32;;;;;;;23.35;9.82;;;;;;;-1.38;84.13;100558.59;5064287;28;20068;-73
2021/01/18 04:39:58;;;;;;;31.15;14.93;;;;;;;-1.46;84.37;100557.41;5065434;28;20093;-73
2021/01/18 04:42:23;;;;;;;27.63;12.52;;;;;;;-1.38;84.29;100553.50;5065174;28;20132;-74
2021/01/18 04:44:52;;;;;;;20.52;9.73;;;;;;;-1.42;84.40;100550.75;5065553;28;20029;-72
2021/01/18 04:47:19;;;;;;;31.23;13.88;;;;;;;-1.35;84.20;100550.22;5080611;28;20040;-73
2021/01/18 04:49:46;;;;;;;21.33;8.77;;;;;;;-1.41;84.28;100548.28;5065337;28;20032;-72
2021/01/18 04:52:17;;;;;;;22.85;11.77;;;;;;;-1.42;84.46;100551.63;5065351;28;20025;-73
2021/01/18 04:54:47;;;;;;;30.05;13.10;;;;;;;-1.42;84.31;100543.13;5065535;28;20108;-73
2021/01/18 04:57:13;;;;;;;12.95;7.10;;;;;;;-1.25;84.04;100531.94;5063510;28;20037;-73
2021/01/18 04:59:55;;;;;;;28.63;14.82;;;;;;;-1.38;84.19;100530.59;5065104;28;20036;-72
2021/01/18 05:02:22;;;;;;;18.77;10.68;;;;;;;-1.30;84.09;100537.66;5063759;28;20024;-73
2021/01/18 05:04:52;;;;;;;19.85;8.75;;;;;;;-1.29;84.23;100537.72;5065100;28;20092;-72
2021/01/18 05:07:35;;;;;;;21.85;8.98;;;;;;;-1.34;84.15;100528.16;5064809;28;20047;-72
2021/01/18 05:10:12;;;;;;;26.15;11.43;;;;;;;-1.34;84.01;100521.38;5064811;28;20025;-73
2021/01/18 05:12:40;;;;;;;23.83;9.55;;;;;;;-1.36;84.14;100530.66;5064747;28;20017;-72
2021/01/18 05:15:07;;;;;;;21.13;8.68;;;;;;;-1.41;83.95;100525.38;5064737;28;20103;-72
2021/01/18 05:17:40;;;;;;;31.38;15.02;;;;;;;-1.45;84.26;100527.72;5063667;28;20024;-72
2021/01/18 05:20:13;;;;;;;30.23;15.05;;;;;;;-1.46;84.39;100513.22;5064669;28;20055;-72
2021/01/18 05:22:43;;;;;;;32.28;14.25;;;;;;;-1.41;84.47;100520.25;5064648;28;20051;-73
2021/01/18 05:25:10;;;;;;;31.17;15.07;;;;;;;-1.41;84.42;100517.72;5064586;28;20458;-72
2021/01/18 05:27:58;;;;;;;29.40;12.40;;;;;;;-1.41;84.38;100514.28;5064637;28;20025;-73
2021/01/18 05:30:25;;;;;;;21.05;10.32;;;;;;;-1.44;84.26;100501.44;5064498;28;20036;-74
2021/01/18 05:33:10;;;;;;;30.10;15.13;;;;;;;-1.42;84.00;100510.00;5064552;28;20076;-73
2021/01/18 05:35:39;;;;;;;18.90;9.88;;;;;;;-1.39;83.85;100515.25;5064478;28;20047;-73
2021/01/18 05:38:10;;;;;;;21.92;9.80;;;;;;;-1.41;83.86;100512.63;5063028;28;20017;-73
2021/01/18 05:40:39;;;;;;;30.30;13.57;;;;;;;-1.45;84.01;100503.09;5063790;28;20159;-75
2021/01/18 05:43:05;;;;;;;27.75;11.88;;;;;;;-1.47;84.47;100503.84;5063234;28;20021;-74
2021/01/18 05:45:39;;;;;;;21.33;9.55;;;;;;;-1.46;84.15;100503.03;5063923;28;20108;-74
2021/01/18 05:48:06;;;;;;;25.08;12.50;;;;;;;-1.50;84.17;100500.34;5064392;28;20048;-74
2021/01/18 05:50:32;;;;;;;33.22;16.42;;;;;;;-1.54;84.22;100498.50;5064318;28;20025;-73
2021/01/18 05:52:59;;;;;;;28.15;13.25;;;;;;;-1.50;84.28;100500.34;5064081;28;20028;-73
2021/01/18 05:55:30;;;;;;;21.85;9.65;;;;;;;-1.46;83.99;100506.47;5063837;28;20021;-71
2021/01/18 05:57:59;;;;;;;10.13;5.15;;;;;;;-1.43;84.33;100509.13;5064326;28;20051;-72
2021/01/18 06:00:41;;;;;;;28.52;12.00;;;;;;;-1.47;84.16;100501.31;5064312;28;20405;-72
2021/01/18 06:03:09;;;;;;;31.50;14.05;;;;;;;-1.50;84.38;100504.56;5064137;28;20492;-72
2021/01/18 06:05:36;;;;;;;31.83;13.25;;;;;;;-1.48;84.05;100486.81;5062489;28;20063;-72
2021/01/18 06:08:16;;;;;;;36.33;17.05;;;;;;;-1.43;84.10;100495.53;5063676;28;20025;-72
2021/01/18 06:10:46;;;;;;;27.50;12.93;;;;;;;-1.50;84.01;100497.81;5063650;28;20039;-72
2021/01/18 06:13:25;;;;;;;21.60;10.13;;;;;;;-1.49;84.28;100488.50;5063734;28;20378;-73
2021/01/18 06:16:02;;;;;;;28.23;13.20;;;;;;;-1.56;84.49;100483.94;5063400;28;20082;-72
2021/01/18 06:18:29;;;;;;;18.98;10.10;;;;;;;-1.56;84.51;100482.28;5079267;28;20437;-74
2021/01/18 06:20:59;;;;;;;25.00;11.80;;;;;;;-1.55;84.75;100478.06;5063669;28;20025;-69
2021/01/18 06:23:25;;;;;;;36.25;15.05;;;;;;;-1.52;84.34;100481.59;5063622;28;20028;-69
2021/01/18 06:25:52;;;;;;;34.00;14.55;;;;;;;-1.60;84.86;100479.53;5063372;28;20340;-69
2021/01/18 06:28:27;;;;;;;31.40;15.20;;;;;;;-1.57;84.73;100480.53;5063654;28;20104;-70
2021/01/18 06:31:08;;;;;;;37.60;16.00;;;;;;;-1.48;84.73;100484.25;5063790;28;20021;-69
2021/01/18 06:33:44;;;;;;;37.13;13.02;;;;;;;-1.61;84.83;100476.09;5063422;28;20045;-75
2021/01/18 06:36:18;;;;;;;28.70;13.68;;;;;;;-1.61;84.80;100476.09;5079138;28;20029;-76
2021/01/18 06:39:05;;;;;;;21.08;9.93;;;;;;;-1.65;84.68;100466.63;5078786;28;20094;-74
2021/01/18 06:41:37;;;;;;;26.05;13.20;;;;;;;-1.68;84.83;100471.56;5061019;28;20041;-74
2021/01/18 06:44:04;;;;;;;28.13;13.13;;;;;;;-1.75;85.33;100455.16;5078968;28;20017;-74
2021/01/18 06:46:32;;;;;;;37.40;16.77;;;;;;;-1.68;85.20;100472.47;5063427;28;20039;-73
2021/01/18 06:48:58;;;;;;;27.85;11.57;;;;;;;-1.78;84.97;100448.28;5078633;28;20025;-75
2021/01/18 06:51:27;;;;;;;38.30;12.88;;;;;;;-1.65;85.28;100467.50;5078761;28;20035;-75
2021/01/18 06:53:54;;;;;;;34.65;14.50;;;;;;;-1.72;85.54;100468.03;5063360;28;20036;-75
2021/01/18 06:56:22;;;;;;;45.10;15.95;;;;;;;-1.59;85.23;100471.09;5062912;28;20233;-76
2021/01/18 06:59:15;;;;;;;45.85;18.45;;;;;;;-1.65;85.46;100461.53;5063322;28;20047;-75
2021/01/18 07:01:46;;;;;;;36.35;14.15;;;;;;;-1.64;85.54;100464.13;5078815;28;20031;-68
2021/01/18 07:04:14;;;;;;;29.33;13.02;;;;;;;-1.65;85.63;100461.53;5063229;28;20024;-72
2021/01/18 07:06:54;;;;;;;47.83;20.65;;;;;;;-1.75;85.80;100462.78;5062730;28;20021;-76
2021/01/18 07:09:25;;;;;;;43.20;17.10;;;;;;;-1.59;85.70;100455.81;5063329;28;20021;-77
2021/01/18 07:12:05;;;;;;;23.23;8.77;;;;;;;-1.53;85.18;100454.38;5061931;28;20078;-78
2021/01/18 07:14:32;;;;;;;38.35;16.63;;;;;;;-1.59;85.36;100456.69;5077955;28;20049;-76
2021/01/18 07:17:06;;;;;;;36.38;16.63;;;;;;;-1.66;85.88;100455.53;5063557;28;20052;-77
2021/01/18 07:19:37;;;;;;;34.90;14.27;;;;;;;-1.60;85.97;100444.78;5063659;28;20059;-77
2021/01/18 07:22:35;;;;;;;57.47;22.77;;;;;;;-1.58;85.81;100455.88;5063137;28;20385;-77
2021/01/18 07:25:03;;;;;;;37.05;14.68;;;;;;;-1.59;85.73;100456.69;5062966;28;20151;-77
2021/01/18 07:27:36;;;;;;;44.78;17.83;;;;;;;-1.55;85.40;100452.59;5061771;28;20044;-77
2021/01/18 07:30:02;;;;;;;29.40;10.88;;;;;;;-1.50;85.35;100456.19;5061036;28;20029;-78
2021/01/18 07:32:33;;;;;;;41.15;14.07;;;;;;;-1.47;85.14;100452.91;5061175;28;20018;-79
2021/01/18 07:34:59;;;;;;;38.53;14.85;;;;;;;-1.59;85.03;100436.31;5063132;28;20222;-78
2021/01/18 07:37:26;;;;;;;30.52;12.48;;;;;;;-1.54;85.52;100450.13;5062918;28;20050;-80
2021/01/18 07:39:52;;;;;;;26.65;9.95;;;;;;;-1.56;85.38;100448.28;5062930;28;20070;-73
2021/01/18 07:42:32;;;;;;;32.10;14.05;;;;;;;-1.58;85.68;100450.78;5078357;28;20024;-73
2021/01/18 07:45:10;;;;;;;22.13;10.27;;;;;;;-1.56;85.47;100446.63;5062897;28;20024;-73
2021/01/18 07:47:55;;;;;;;24.73;10.85;;;;;;;-1.51;85.43;100445.16;5065921;28;20102;-72
2021/01/18 07:50:40;;;;;;;33.22;14.40;;;;;;;-1.52;85.63;100442.53;5057846;28;20029;-73
2021/01/18 07:53:10;;;;;;;37.42;14.05;;;;;;;-1.56;85.27;100426.25;5066396;28;20021;-73
2021/01/18 07:55:36;;;;;;;24.48;9.52;;;;;;;-1.53;85.44;100435.69;5065944;28;20025;-72
2021/01/18 07:58:15;;;;;;;49.38;19.67;;;;;;;-1.54;85.68;100439.06;5066463;28;20102;-73
2021/01/18 08:00:41;;;;;;;37.28;14.30;;;;;;;-1.46;85.33;100441.91;5081480;28;20025;-73
2021/01/18 08:03:09;;;;;;;38.63;16.05;;;;;;;-1.50;85.57;100441.78;5066337;28;20025;-72
2021/01/18 08:05:37;;;;;;;27.75;12.43;;;;;;;-1.31;84.89;100436.59;5066383;28;20075;-72
2021/01/18 08:08:05;;;;;;;28.77;11.15;;;;;;;-1.46;85.54;100434.28;5066470;28;20032;-73
2021/01/18 08:10:49;;;;;;;38.35;16.00;;;;;;;-1.40;85.30;100432.84;5081120;28;20036;-73
2021/01/18 08:13:46;;;;;;;27.98;12.20;;;;;;;-1.42;85.48;100426.81;5065774;28;20052;-74
2021/01/18 08:16:37;;;;;;;21.67;9.57;;;;;;;-1.34;85.16;100426.28;5065884;28;20032;-74
2021/01/18 08:19:18;;;;;;;34.30;11.15;;;;;;;-1.35;85.12;100424.50;5065991;28;20095;-74
2021/01/18 08:21:54;;;;;;;28.25;11.82;;;;;;;-1.28;84.68;100414.63;5065653;28;20021;-74
2021/01/18 08:24:23;;;;;;;31.48;15.23;;;;;;;-1.31;84.91;100422.16;5080124;28;20028;-73
2021/01/18 08:27:06;;;;;;;15.80;7.60;;;;;;;-1.31;84.95;100426.41;5078823;28;20150;-73
2021/01/18 08:29:45;;;;;;;21.27;9.43;;;;;;;-1.37;85.17;100409.16;5065113;28;20055;-74
2021/01/18 08:32:30;;;;;;;32.20;13.85;;;;;;;-1.31;85.16;100416.22;5065715;28;20017;-74
2021/01/18 08:35:19;;;;;;;22.23;9.07;;;;;;;-1.23;84.77;100414.81;5065443;28;20025;-73
2021/01/18 08:37:55;;;;;;;25.52;12.73;;;;;;;-1.23;84.93;100403.78;5006271;28;20174;-74
2021/01/18 08:40:20;;;;;;;23.92;10.43;;;;;;;-1.26;85.07;100410.47;5022873;28;20121;-73
2021/01/18 08:42:54;;;;;;;26.10;12.95;;;;;;;-1.17;84.71;100397.25;5022453;28;20053;-73
2021/01/18 08:45:34;;;;;;;30.95;13.77;;;;;;;-1.18;84.67;100402.28;5022957;28;20123;-73
2021/01/18 08:48:02;;;;;;;41.42;17.05;;;;;;;-1.30;84.64;100387.38;5022830;28;20086;-74
2021/01/18 08:50:52;;;;;;;23.73;9.50;;;;;;;-1.22;84.98;100396.19;5006285;28;20089;-73
2021/01/18 08:53:30;;;;;;;26.38;11.95;;;;;;;-1.06;84.22;100400.22;5022278;28;20060;-73
2021/01/18 08:56:01;;;;;;;30.92;9.57;;;;;;;-1.16;84.23;100386.25;5005805;28;20096;-73
2021/01/18 08:58:47;;;;;;;26.77;11.25;;;;;;;-1.18;84.79;100392.09;5005944;28;20061;-74
2021/01/18 09:01:19;;;;;;;29.73;12.27;;;;;;;-1.27;84.68;100390.91;5022186;28;20050;-74
2021/01/18 09:03:44;;;;;;;39.60;14.25;;;;;;;-1.23;84.92;100388.50;5022430;28;20502;-74
2021/01/18 09:06:10;;;;;;;30.30;12.05;;;;;;;-1.13;84.67;100388.03;5005792;28;20045;-74
2021/01/18 09:08:38;;;;;;;37.67;12.23;;;;;;;-1.13;84.40;100391.47;5022262;28;20030;-74
2021/01/18 09:11:06;;;;;;;34.75;15.63;;;;;;;-1.35;85.14;100381.22;5005392;28;20036;-74
2021/01/18 09:13:33;;;;;;;40.47;17.30;;;;;;;-1.29;85.34;100382.34;5021667;28;20026;-74
2021/01/18 09:16:02;;;;;;;36.45;14.77;;;;;;;-1.17;84.99;100388.72;5064674;28;20084;-74
2021/01/18 09:18:28;;;;;;;47.42;20.33;;;;;;;-1.20;85.19;100388.63;5064749;28;20017;-75
2021/01/18 09:20:55;;;;;;;45.80;18.05;;;;;;;-1.09;85.03;100394.13;5080160;28;20032;-75
2021/01/18 09:23:22;;;;;;;38.30;17.02;;;;;;;-1.04;84.93;100396.03;5064631;28;20023;-75
2021/01/18 09:25:55;;;;;;;20.83;9.63;;;;;;;-0.87;84.44;100393.28;5064386;28;20047;-75
2021/01/18 09:28:21;;;;;;;32.92;14.15;;;;;;;-0.90;84.04;100398.25;5064351;28;20103;-75
2021/01/18 09:30:46;;;;;;;36.90;15.55;;;;;;;-1.06;84.65;100392.56;5064196;28;20059;-74
2021/01/18 09:33:12;;;;;;;33.33;15.38;;;;;;;-0.97;84.38;100396.25;5064249;28;20032;-75
2021/01/18 09:35:40;;;;;;;29.95;12.07;;;;;;;-1.01;84.71;100388.50;5064037;28;20021;-74
2021/01/18 09:38:07;;;;;;;37.45;15.88;;;;;;;-0.92;84.29;100394.78;5063196;28;20028;-75
2021/01/18 09:40:38;;;;;;;41.40;15.93;;;;;;;-0.95;84.23;100382.78;5063154;28;20054;-75
2021/01/18 09:43:05;;;;;;;26.70;10.27;;;;;;;-0.81;83.64;100380.75;5063839;28;20085;-76
2021/01/18 09:45:32;;;;;;;38.17;15.73;;;;;;;-0.92;84.24;100392.22;5063934;28;20025;-76
2021/01/18 09:48:06;;;;;;;24.20;11.93;;;;;;;-0.94;84.52;100386.22;5062535;28;20059;-75
2021/01/18 09:50:33;;;;;;;28.10;13.45;;;;;;;-0.89;84.59;100387.25;5064004;28;20055;-75
2021/01/18 09:53:06;;;;;;;24.20;12.60;;;;;;;-0.84;84.21;100378.09;5063722;28;20029;-75
2021/01/18 09:55:46;;;;;;;29.30;13.52;;;;;;;-0.83;84.19;100372.16;5063634;28;20051;-75
2021/01/18 09:58:50;;;;;;;35.55;15.15;;;;;;;-0.79;83.90;100368.94;5062077;28;20477;-76
2021/01/18 10:01:19;;;;;;;37.42;16.45;;;;;;;-0.79;83.87;100366.41;5062413;28;20060;-76
2021/01/18 10:03:57;;;;;;;29.73;12.07;;;;;;;-0.85;84.03;100360.19;5062413;28;20116;-75
2021/01/18 10:06:31;;;;;;;37.38;16.70;;;;;;;-0.90;84.30;100355.81;5063838;28;20017;-76
2021/01/18 10:09:07;;;;;;;36.78;15.73;;;;;;;-0.83;84.38;100368.78;5063072;28;20017;-75
2021/01/18 10:11:41;;;;;;;38.15;15.88;;;;;;;-0.77;84.01;100362.19;5063875;28;20029;-76
2021/01/18 10:14:18;;;;;;;32.70;14.50;;;;;;;-0.75;83.52;100350.38;5062664;28;20032;-76
2021/01/18 10:17:03;;;;;;;37.78;16.20;;;;;;;-0.55;83.17;100359.59;5063665;28;20033;-76
2021/01/18 10:19:30;;;;;;;36.88;16.42;;;;;;;-0.70;83.40;100345.47;5064001;28;20024;-76
2021/01/18 10:21:57;;;;;;;18.27;8.18;;;;;;;-0.77;83.68;100341.81;5078979;28;20107;-75
2021/01/18 10:24:27;;;;;;;25.83;12.05;;;;;;;-0.54;83.06;100349.44;5063771;28;20081;-76
2021/01/18 10:27:01;;;;;;;41.60;19.83;;;;;;;-0.70;83.32;100342.06;5063359;28;20040;-73
2021/01/18 10:29:30;;;;;;;44.42;19.30;;;;;;;-0.71;83.65;100338.63;5079185;28;20029;-74
2021/01/18 10:31:56;;;;;;;43.10;17.23;;;;;;;-0.66;83.68;100334.56;5063565;28;20035;-74
2021/01/18 10:34:21;;;;;;;25.73;10.27;;;;;;;-0.69;83.64;100329.38;5063517;28;20056;-74
2021/01/18 10:37:13;;;;;;;39.58;16.10;;;;;;;-0.63;83.59;100326.16;5078840;28;20021;-75
2021/01/18 10:39:40;;;;;;;32.78;13.25;;;;;;;-0.54;82.96;100315.41;5078854;28;20017;-75
2021/01/18 10:42:12;;;;;;;20.20;8.70;;;;;;;-0.53;83.41;100323.09;5063237;28;20036;-76
2021/01/18 10:44:48;;;;;;;33.15;14.43;;;;;;;-0.64;83.74;100311.69;5063536;28;20021;-76
2021/01/18 10:47:14;;;;;;;49.03;19.33;;;;;;;-0.64;83.72;100306.59;5063360;28;20052;-76
2021/01/18 10:49:39;;;;;;;39.28;15.45;;;;;;;-0.60;83.78;100300.78;5063365;28;20029;-75
2021/01/18 10:52:06;;;;;;;32.92;15.32;;;;;;;-0.57;83.96;100308.53;5078811;28;20233;-75
2021/01/18 10:54:33;;;;;;;46.92;18.88;;;;;;;-0.59;83.87;100294.84;5061939;28;20025;-74
2021/01/18 10:57:00;;;;;;;53.60;26.00;;;;;;;-0.59;83.93;100299.94;5062868;28;20045;-75
2021/01/18 10:59:26;;;;;;;33.67;15.73;;;;;;;-0.59;84.26;100292.28;5063323;28;20032;-74
2021/01/18 11:02:11;;;;;;;43.75;16.55;;;;;;;-0.58;84.54;100288.06;5063400;28;20028;-73
2021/01/18 11:04:44;;;;;;;44.65;19.67;;;;;;;-0.50;83.99;100273.91;5061721;28;20024;-75
2021/01/18 11:07:11;;;;;;;42.90;19.40;;;;;;;-0.54;84.33;100279.69;5062026;28;20452;-74
2021/01/18 11:09:37;;;;;;;64.88;26.65;;;;;;;-0.64;84.67;100273.44;5063445;28;20021;-74
2021/01/18 11:12:03;;;;;;;38.10;17.17;;;;;;;-0.54;84.67;100283.13;5061645;28;20378;-74
2021/01/18 11:14:30;;;;;;;43.97;17.27;;;;;;;-0.55;84.26;100262.69;5062754;28;20029;-74
2021/01/18 11:17:02;;;;;;;27.33;12.10;;;;;;;-0.48;84.49;100272.28;5061643;28;20017;-75
2021/01/18 11:19:28;;;;;;;53.05;22.77;;;;;;;-0.55;84.45;100267.78;5063983;28;20029;-75
2021/01/18 11:21:53;;;;;;;47.70;19.30;;;;;;;-0.48;84.47;100274.84;5067241;28;20106;-75
2021/01/18 11:24:19;;;;;;;59.47;23.10;;;;;;;-0.49;84.58;100262.88;5067359;28;20021;-74
2021/01/18 11:26:49;;;;;;;42.65;16.30;;;;;;;-0.56;84.63;100254.16;5067069;28;20048;-75
2021/01/18 11:29:15;;;;;;;37.72;15.98;;;;;;;-0.47;84.67;100263.81;5067274;28;20036;-77